Time;durP1;ratioP1;P1;durP2;ratioP2;P2;SDS_P1;SDS_P2;PMS_P1;PMS_P2;Temp;Humidity;BMP_temperature;BMP_pressure;BME280_temperature;BME280_humidity;BME280_pressure;Samples;Min_cycle;Max_cycle;Signal;HPM_P1;HPM_P2
2022/10/11 00:00:24;;;;;;;14.32;2.80;;;6.90;99.90;;;;;;5063287;28;20564;-69
2022/10/11 00:02:49;;;;;;;14.57;4.25;;;6.90;99.90;;;;;;5064478;28;20448;-69
2022/10/11 00:05:16;;;;;;;14.40;3.30;;;6.90;99.90;;;;;;5064517;28;20075;-69
2022/10/11 00:07:41;;;;;;;11.80;3.10;;;6.90;99.90;;;;;;5064971;28;20056;-69
2022/10/11 00:10:08;;;;;;;14.55;3.30;;;6.80;99.90;;;;;;5064285;28;20037;-69
2022/10/11 00:12:35;;;;;;;14.65;3.42;;;6.80;99.90;;;;;;5063992;28;20067;-69
2022/10/11 00:15:01;;;;;;;11.55;3.20;;;6.80;99.90;;;;;;5063957;28;20483;-69
2022/10/11 00:17:27;;;;;;;10.48;2.70;;;6.70;99.90;;;;;;5062633;28;20049;-69
2022/10/11 00:19:52;;;;;;;11.73;2.97;;;6.70;99.90;;;;;;5062334;28;20105;-69
2022/10/11 00:22:18;;;;;;;15.18;3.28;;;6.70;99.90;;;;;;5064590;28;20428;-69
2022/10/11 00:24:44;;;;;;;12.25;3.75;;;6.60;99.90;;;;;;5063810;28;20045;-69
2022/10/11 00:27:09;;;;;;;9.52;3.15;;;6.70;99.90;;;;;;5058299;28;20048;-68
2022/10/11 00:29:36;;;;;;;16.20;3.28;;;6.70;99.90;;;;;;5063944;28;20048;-69
2022/10/11 00:32:02;;;;;;;15.95;3.17;;;6.60;99.90;;;;;;5058058;28;20072;-69
2022/10/11 00:34:28;;;;;;;11.70;3.10;;;6.60;99.90;;;;;;5063304;28;20049;-69
2022/10/11 00:36:53;;;;;;;16.23;3.83;;;6.60;99.90;;;;;;5063287;28;20053;-69
2022/10/11 00:39:19;;;;;;;13.93;3.55;;;6.30;99.90;;;;;;5063123;28;20097;-69
2022/10/11 00:41:46;;;;;;;18.15;4.07;;;;;;;;;;5064363;28;20164;-69
2022/10/11 00:44:18;;;;;;;17.75;3.75;;;6.70;99.90;;;;;;5043382;28;20054;-69
2022/10/11 00:46:50;;;;;;;10.27;3.10;;;6.70;99.90;;;;;;5062130;28;20099;-69
2022/10/11 00:49:31;;;;;;;14.35;3.58;;;6.60;99.90;;;;;;5064329;28;20072;-69
2022/10/11 00:52:05;;;;;;;16.50;4.30;;;6.60;99.90;;;;;;5057062;28;20080;-69
2022/10/11 00:54:34;;;;;;;15.40;3.17;;;6.60;99.90;;;;;;5061631;28;20056;-69
2022/10/11 00:57:08;;;;;;;10.50;3.03;;;6.60;99.90;;;;;;5063152;28;20126;-69
2022/10/11 00:59:38;;;;;;;10.38;2.97;;;6.60;99.90;;;;;;5063783;28;20041;-69
2022/10/11 01:02:05;;;;;;;15.23;2.65;;;6.50;99.90;;;;;;5063975;28;20037;-69
2022/10/11 01:04:32;;;;;;;7.63;2.50;;;6.40;99.90;;;;;;5064191;28;20060;-69
2022/10/11 01:06:58;;;;;;;13.73;2.60;;;6.50;99.90;;;;;;5061202;28;20382;-69
2022/10/11 01:09:25;;;;;;;9.70;3.20;;;6.40;99.90;;;;;;5062291;28;20120;-69
2022/10/11 01:11:55;;;;;;;7.50;2.70;;;6.40;99.90;;;;;;5062250;28;20037;-69
2022/10/11 01:14:51;;;;;;;18.40;3.63;;;6.40;99.90;;;;;;5062247;28;20121;-69
2022/10/11 01:17:43;;;;;;;10.55;2.83;;;6.50;99.90;;;;;;5057614;28;20585;-69
2022/10/11 01:20:30;;;;;;;13.18;2.75;;;6.50;99.90;;;;;;5062428;28;20053;-69
2022/10/11 01:23:16;;;;;;;11.00;2.97;;;6.50;99.90;;;;;;5058755;28;20048;-69
2022/10/11 01:26:06;;;;;;;9.50;2.60;;;6.40;99.90;;;;;;5061923;28;20053;-69
2022/10/11 01:28:50;;;;;;;13.25;3.17;;;6.30;99.90;;;;;;5062414;28;20083;-69
2022/10/11 01:31:30;;;;;;;12.68;2.90;;;6.30;99.90;;;;;;5057322;28;20546;-69
2022/10/11 01:34:07;;;;;;;12.32;2.78;;;6.30;99.90;;;;;;5062200;28;20049;-69
2022/10/11 01:36:39;;;;;;;9.35;2.60;;;6.30;99.90;;;;;;5061929;28;20044;-69
2022/10/11 01:39:43;;;;;;;6.38;2.22;;;6.30;99.90;;;;;;5061010;28;20128;-69
2022/10/11 01:42:11;;;;;;;7.28;2.88;;;6.20;99.90;;;;;;5061433;28;20158;-69
2022/10/11 01:44:40;;;;;;;11.50;2.75;;;6.20;99.90;;;;;;5063282;28;20044;-69
2022/10/11 01:47:06;;;;;;;17.92;3.17;;;6.20;99.90;;;;;;5064480;28;20041;-69
2022/10/11 01:49:32;;;;;;;15.05;2.88;;;6.20;99.90;;;;;;5066008;28;20574;-69
2022/10/11 01:52:02;;;;;;;12.52;2.55;;;6.20;99.90;;;;;;5066184;28;20045;-69
2022/10/11 01:54:36;;;;;;;9.48;2.45;;;6.20;99.90;;;;;;5066190;28;20080;-69
2022/10/11 01:57:21;;;;;;;10.77;3.83;;;6.20;99.90;;;;;;5066102;28;20037;-68
2022/10/11 02:00:02;;;;;;;11.95;2.85;;;6.10;99.90;;;;;;5067297;28;20128;-69
2022/10/11 02:02:52;;;;;;;15.25;3.25;;;6.10;99.90;;;;;;5068499;28;20044;-69
2022/10/11 02:05:36;;;;;;;;;;;6.10;99.90;;;;;;5068524;28;20115;-69
2022/10/11 02:08:22;;;;;;;9.88;2.95;;;6.20;99.90;;;;;;5063646;28;19928;-69
2022/10/11 02:11:07;;;;;;;9.20;2.67;;;6.20;99.90;;;;;;5067552;28;20065;-69
2022/10/11 02:13:47;;;;;;;15.38;2.47;;;6.30;99.90;;;;;;5065912;28;20055;-69
2022/10/11 02:16:17;;;;;;;14.07;3.22;;;6.20;99.90;;;;;;5067699;28;20386;-69
2022/10/11 02:18:45;;;;;;;;;;;6.20;99.90;;;;;;5065920;28;20036;-69
2022/10/11 02:21:14;;;;;;;12.82;3.30;;;6.20;99.90;;;;;;5065802;28;19924;-69
2022/10/11 02:23:46;;;;;;;7.10;2.60;;;6.20;99.90;;;;;;5064773;28;20094;-69
2022/10/11 02:26:13;;;;;;;14.57;2.70;;;6.10;99.90;;;;;;5065170;28;20041;-69
2022/10/11 02:28:41;;;;;;;8.60;2.15;;;6.20;99.90;;;;;;5068206;28;20057;-69
2022/10/11 02:31:09;;;;;;;13.48;2.78;;;6.10;99.90;;;;;;5066450;28;20056;-69
2022/10/11 02:33:46;;;;;;;9.98;2.33;;;6.10;99.90;;;;;;5061064;28;20055;-69
2022/10/11 02:36:23;;;;;;;15.70;3.38;;;6.10;99.90;;;;;;5065128;28;20105;-69
2022/10/11 02:38:53;;;;;;;14.18;3.15;;;6.00;99.90;;;;;;5066475;28;20049;-69
2022/10/11 02:41:39;;;;;;;15.60;3.53;;;6.00;99.90;;;;;;5067142;28;20037;-69
2022/10/11 02:44:31;;;;;;;10.63;2.70;;;6.00;99.90;;;;;;5048241;28;20060;-68
2022/10/11 02:46:59;;;;;;;15.35;3.33;;;6.00;99.90;;;;;;5060854;28;20083;-68
2022/10/11 02:49:27;;;;;;;15.15;2.75;;;5.40;99.90;;;;;;5065246;28;20049;-68
2022/10/11 02:51:57;;;;;;;8.23;2.60;;;6.00;99.90;;;;;;5066215;28;20049;-68
2022/10/11 02:54:26;;;;;;;7.50;2.47;;;6.00;99.90;;;;;;5065623;28;20461;-68
2022/10/11 02:56:52;;;;;;;5.37;2.40;;;6.00;99.90;;;;;;5065080;28;20097;-68
2022/10/11 02:59:18;;;;;;;11.73;2.75;;;6.00;99.90;;;;;;5063791;28;20327;-68
2022/10/11 03:01:43;;;;;;;13.80;2.85;;;6.00;99.90;;;;;;5066503;28;20056;-68
2022/10/11 03:04:09;;;;;;;13.25;2.83;;;6.00;99.90;;;;;;5064974;28;20048;-68
2022/10/11 03:06:35;;;;;;;9.80;2.72;;;6.00;99.90;;;;;;5066547;28;20041;-68
2022/10/11 03:09:00;;;;;;;13.05;2.85;;;6.00;99.90;;;;;;5047810;28;20269;-69
2022/10/11 03:11:26;;;;;;;14.55;3.03;;;;;;;;;;5065867;28;20052;-69
2022/10/11 03:13:52;;;;;;;8.85;1.85;;;5.90;99.90;;;;;;5064104;28;20068;-69
2022/10/11 03:16:18;;;;;;;9.02;2.35;;;5.90;99.90;;;;;;5065446;28;20049;-69
2022/10/11 03:18:44;;;;;;;8.35;1.92;;;5.80;99.90;;;;;;5065553;28;20060;-69
2022/10/11 03:21:09;;;;;;;10.73;2.45;;;5.70;99.90;;;;;;5066011;28;20127;-68
2022/10/11 03:23:35;;;;;;;8.85;2.20;;;5.60;99.90;;;;;;5063831;28;20053;-68
2022/10/11 03:26:01;;;;;;;14.00;2.90;;;5.70;99.90;;;;;;5064291;28;20040;-68
2022/10/11 03:28:27;;;;;;;9.45;2.03;;;5.70;99.90;;;;;;5064035;28;20053;-69
2022/10/11 03:30:53;;;;;;;12.52;2.95;;;5.70;99.90;;;;;;5064177;28;20052;-69
2022/10/11 03:33:19;;;;;;;8.60;2.22;;;5.70;99.90;;;;;;5065702;28;20053;-69
2022/10/11 03:35:46;;;;;;;6.85;1.80;;;5.70;99.90;;;;;;5066153;28;20052;-68
2022/10/11 03:38:20;;;;;;;8.50;2.05;;;5.60;99.90;;;;;;5064542;28;20087;-69
2022/10/11 03:40:46;;;;;;;6.55;1.95;;;5.40;99.90;;;;;;5064287;28;20064;-69
2022/10/11 03:43:12;;;;;;;12.20;3.00;;;5.30;99.90;;;;;;5063696;28;20043;-68
2022/10/11 03:45:38;;;;;;;9.65;2.30;;;5.30;99.90;;;;;;5064242;28;20218;-68
2022/10/11 03:48:04;;;;;;;10.05;2.20;;;5.40;99.90;;;;;;5065714;28;20056;-68
2022/10/11 03:50:30;;;;;;;11.00;2.60;;;5.50;99.90;;;;;;5064209;28;20068;-68
2022/10/11 03:52:56;;;;;;;9.55;2.58;;;5.60;99.90;;;;;;5063900;28;20052;-69
2022/10/11 03:55:21;;;;;;;9.63;2.65;;;5.70;99.90;;;;;;5063624;28;20048;-68
2022/10/11 03:57:47;;;;;;;10.68;2.70;;;5.70;99.90;;;;;;5064110;28;20044;-69
2022/10/11 04:00:13;;;;;;;8.70;2.00;;;5.80;99.90;;;;;;5064978;28;20037;-69
2022/10/11 04:02:39;;;;;;;11.98;2.25;;;5.80;99.90;;;;;;5064650;28;20053;-69
2022/10/11 04:05:05;;;;;;;9.88;2.35;;;5.70;99.90;;;;;;5063280;28;20497;-67
2022/10/11 04:07:32;;;;;;;8.45;2.33;;;5.60;99.90;;;;;;5064507;28;20045;-67
2022/10/11 04:09:58;;;;;;;14.00;3.03;;;;;;;;;;5063127;28;20041;-67
2022/10/11 04:12:24;;;;;;;15.50;3.47;;;;;;;;;;5063320;28;20052;-68
2022/10/11 04:14:50;;;;;;;10.55;3.15;;;5.60;99.90;;;;;;5062524;28;20056;-68
2022/10/11 04:17:16;;;;;;;8.63;2.33;;;5.70;99.90;;;;;;5066243;28;20045;-68
2022/10/11 04:19:42;;;;;;;9.95;2.30;;;;;;;;;;5065222;28;20080;-68
2022/10/11 04:22:07;;;;;;;10.00;1.98;;;6.10;99.90;;;;;;5064506;28;20041;-68
2022/10/11 04:24:33;;;;;;;8.30;2.20;;;5.60;99.90;;;;;;5045618;28;20071;-68
2022/10/11 04:26:59;;;;;;;9.23;2.10;;;5.60;99.90;;;;;;5064469;28;20037;-68
2022/10/11 04:29:25;;;;;;;7.85;2.58;;;5.50;99.90;;;;;;5063898;28;20067;-68
2022/10/11 04:31:51;;;;;;;8.40;2.13;;;7.30;99.90;;;;;;5063181;28;20064;-68
2022/10/11 04:34:16;;;;;;;10.73;2.03;;;5.40;99.90;;;;;;5063207;28;20067;-68
2022/10/11 04:36:42;;;;;;;11.25;2.83;;;5.40;99.90;;;;;;5065036;28;20056;-68
2022/10/11 04:39:08;;;;;;;10.57;2.78;;;5.50;99.90;;;;;;5063016;28;20245;-68
2022/10/11 04:41:34;;;;;;;11.60;2.45;;;5.60;99.90;;;;;;5064073;28;20048;-68
2022/10/11 04:44:01;;;;;;;10.13;2.35;;;5.60;99.90;;;;;;5064097;28;20037;-68
2022/10/11 04:46:27;;;;;;;12.00;3.13;;;5.70;99.90;;;;;;5064131;28;20037;-68
2022/10/11 04:48:53;;;;;;;10.27;2.42;;;5.60;99.90;;;;;;5063882;28;20040;-68
2022/10/11 04:51:19;;;;;;;7.18;2.17;;;5.70;99.90;;;;;;5064332;28;20076;-68
2022/10/11 04:53:45;;;;;;;7.82;2.28;;;;;;;;;;5063668;28;20036;-68
2022/10/11 04:56:11;;;;;;;11.10;2.75;;;5.70;99.90;;;;;;5060719;28;20055;-68
2022/10/11 04:58:39;;;;;;;15.02;3.95;;;5.70;99.90;;;;;;5063750;28;20029;-68
2022/10/11 05:01:06;;;;;;;11.57;3.00;;;5.70;99.90;;;;;;5062909;28;20045;-68
2022/10/11 05:03:32;;;;;;;10.85;3.25;;;5.80;99.90;;;;;;5063681;28;20100;-68
2022/10/11 05:05:58;;;;;;;8.70;2.80;;;5.80;99.90;;;;;;5064095;28;20044;-68
2022/10/11 05:08:25;;;;;;;9.23;2.55;;;5.80;99.90;;;;;;5062370;28;20125;-68
2022/10/11 05:10:58;;;;;;;6.10;1.80;;;5.70;99.90;;;;;;5063935;28;20354;-68
2022/10/11 05:13:25;;;;;;;7.93;2.38;;;5.70;99.90;;;;;;5063217;28;20055;-68
2022/10/11 05:15:51;;;;;;;11.10;2.70;;;5.70;99.90;;;;;;5063006;28;20064;-68
2022/10/11 05:18:17;;;;;;;7.05;2.58;;;5.70;99.90;;;;;;5063062;28;20045;-68
2022/10/11 05:20:43;;;;;;;9.32;2.70;;;5.80;99.90;;;;;;5061469;28;20128;-67
2022/10/11 05:23:08;;;;;;;8.80;2.42;;;5.80;99.90;;;;;;5063928;28;20044;-68
2022/10/11 05:25:34;;;;;;;15.10;2.72;;;5.80;99.90;;;;;;5062569;28;20041;-68
2022/10/11 05:28:00;;;;;;;15.50;2.80;;;5.70;99.90;;;;;;5063122;28;20048;-69
2022/10/11 05:30:26;;;;;;;9.85;2.47;;;5.70;99.90;;;;;;5062247;28;20072;-66
2022/10/11 05:32:52;;;;;;;7.75;2.33;;;5.70;99.90;;;;;;5062187;28;20053;-68
2022/10/11 05:35:17;;;;;;;7.53;2.13;;;5.70;99.90;;;;;;5062353;28;20061;-68
2022/10/11 05:37:43;;;;;;;7.28;2.78;;;5.70;99.90;;;;;;5064271;28;20029;-67
2022/10/11 05:40:10;;;;;;;11.60;2.67;;;5.60;99.90;;;;;;5064362;28;20409;-67
2022/10/11 05:42:36;;;;;;;13.70;2.70;;;5.70;99.90;;;;;;5062839;28;20524;-67
2022/10/11 05:45:03;;;;;;;13.60;3.58;;;5.70;99.90;;;;;;5051245;28;20053;-66
2022/10/11 05:47:29;;;;;;;11.77;2.72;;;5.80;99.90;;;;;;5053525;28;20041;-66
2022/10/11 05:49:55;;;;;;;13.20;3.45;;;5.80;99.90;;;;;;5058208;28;20045;-66
2022/10/11 05:52:20;;;;;;;10.50;3.17;;;5.80;99.90;;;;;;5058999;28;20052;-66
2022/10/11 05:54:47;;;;;;;12.25;2.88;;;5.90;99.90;;;;;;5062848;28;20074;-67
2022/10/11 05:57:13;;;;;;;9.25;2.95;;;5.90;99.90;;;;;;5062391;28;20041;-67
2022/10/11 05:59:39;;;;;;;12.18;3.40;;;6.00;99.90;;;;;;5061399;28;20132;-67
2022/10/11 06:02:05;;;;;;;12.57;3.33;;;6.10;99.90;;;;;;5040392;28;20067;-65
2022/10/11 06:04:34;;;;;;;13.77;2.97;;;6.10;99.90;;;;;;5063172;28;20049;-65
2022/10/11 06:07:00;;;;;;;8.55;2.92;;;6.10;99.90;;;;;;5061707;28;20041;-65
2022/10/11 06:09:25;;;;;;;12.18;2.95;;;6.20;99.90;;;;;;5062367;28;20145;-65
2022/10/11 06:11:51;;;;;;;12.27;3.70;;;6.10;99.90;;;;;;5061476;28;20044;-67
2022/10/11 06:14:17;;;;;;;13.48;3.63;;;6.20;99.90;;;;;;5062495;28;20056;-63
2022/10/11 06:16:42;;;;;;;12.80;4.20;;;6.30;99.90;;;;;;5016317;28;20134;-64
2022/10/11 06:19:08;;;;;;;11.43;3.50;;;6.30;99.90;;;;;;5068810;28;20055;-64
2022/10/11 06:21:34;;;;;;;10.68;3.22;;;6.40;99.90;;;;;;5075315;28;20048;-64
2022/10/11 06:24:00;;;;;;;9.70;3.20;;;6.40;99.90;;;;;;5076930;28;20037;-64
2022/10/11 06:26:27;;;;;;;13.38;3.92;;;6.40;99.90;;;;;;5074877;28;20083;-64
2022/10/11 06:28:52;;;;;;;12.93;3.70;;;6.50;99.90;;;;;;5048391;28;20060;-65
2022/10/11 06:31:18;;;;;;;12.88;3.38;;;6.50;99.90;;;;;;5074588;28;20048;-64
2022/10/11 06:33:44;;;;;;;11.93;3.42;;;6.50;99.90;;;;;;5051911;28;20059;-65
2022/10/11 06:36:12;;;;;;;15.60;4.00;;;6.70;99.90;;;;;;5081432;28;20112;-65
2022/10/11 06:38:38;;;;;;;15.25;4.00;;;;;;;;;;5054242;28;20691;-67
2022/10/11 06:41:11;;;;;;;11.52;3.35;;;;;;;;;;5080015;28;20044;-67
2022/10/11 06:43:37;;;;;;;11.60;3.40;;;7.00;99.90;;;;;;5052996;28;20060;-67
2022/10/11 06:46:03;;;;;;;8.55;3.22;;;6.80;99.90;;;;;;5079755;28;20051;-67
2022/10/11 06:48:30;;;;;;;8.90;2.83;;;6.70;99.90;;;;;;5068949;28;20067;-67
2022/10/11 06:50:57;;;;;;;12.88;4.03;;;6.70;99.90;;;;;;5076007;28;20129;-67
2022/10/11 06:53:23;;;;;;;11.75;3.40;;;6.80;99.90;;;;;;5052299;28;20052;-67
2022/10/11 06:55:49;;;;;;;11.82;4.15;;;6.80;99.90;;;;;;5074218;28;20044;-68
2022/10/11 06:58:15;;;;;;;14.07;3.60;;;6.80;99.90;;;;;;5071709;28;20146;-67
2022/10/11 07:00:41;;;;;;;12.07;3.63;;;6.80;99.90;;;;;;5081839;28;20147;-67
2022/10/11 07:03:07;;;;;;;9.32;3.20;;;6.80;99.90;;;;;;5046877;28;20091;-67
2022/10/11 07:05:33;;;;;;;11.02;3.58;;;6.80;99.90;;;;;;5074298;28;20052;-67
2022/10/11 07:08:00;;;;;;;13.40;4.15;;;6.80;99.90;;;;;;5059327;28;20048;-68
2022/10/11 07:10:26;;;;;;;10.05;3.45;;;6.80;99.90;;;;;;5071018;28;20137;-67
2022/10/11 07:12:52;;;;;;;16.05;4.18;;;6.90;99.90;;;;;;5062058;28;20147;-67
2022/10/11 07:15:18;;;;;;;15.85;4.15;;;7.00;99.90;;;;;;5044466;28;20468;-67
2022/10/11 07:17:44;;;;;;;11.38;4.03;;;7.10;99.90;;;;;;5063455;28;20059;-68
2022/10/11 07:20:10;;;;;;;12.27;4.05;;;7.00;99.90;;;;;;5065451;28;20040;-67
2022/10/11 07:22:36;;;;;;;12.77;4.00;;;7.10;99.90;;;;;;5066890;28;20060;-67
2022/10/11 07:25:02;;;;;;;10.85;3.60;;;7.20;99.90;;;;;;5067583;28;20044;-68
2022/10/11 07:27:28;;;;;;;12.90;3.58;;;7.30;99.90;;;;;;5067497;28;20060;-68
2022/10/11 07:29:53;;;;;;;16.55;3.80;;;7.40;99.90;;;;;;5066138;28;20662;-67
2022/10/11 07:32:19;;;;;;;9.95;3.60;;;7.40;99.90;;;;;;5067373;28;20049;-67
2022/10/11 07:34:45;;;;;;;10.80;3.53;;;7.40;99.90;;;;;;5065208;28;20080;-68
2022/10/11 07:37:10;;;;;;;10.48;3.83;;;7.50;99.90;;;;;;5085818;28;20570;-68
2022/10/11 07:39:36;;;;;;;9.85;3.67;;;7.50;99.90;;;;;;5064867;28;20377;-66
2022/10/11 07:42:02;;;;;;;11.65;3.60;;;7.60;99.90;;;;;;5034202;28;20047;-69
2022/10/11 07:44:28;;;;;;;10.88;4.10;;;7.70;99.90;;;;;;5061723;28;20052;-69
2022/10/11 07:46:53;;;;;;;12.50;3.80;;;7.70;99.90;;;;;;5051174;28;20071;-71
2022/10/11 07:49:19;;;;;;;12.05;3.53;;;7.70;99.90;;;;;;5068340;28;20044;-70
2022/10/11 07:51:45;;;;;;;13.27;3.15;;;7.90;99.90;;;;;;5068895;28;20040;-70
2022/10/11 07:54:11;;;;;;;12.30;3.92;;;7.90;99.90;;;;;;5037819;28;20582;-70
2022/10/11 07:56:37;;;;;;;12.15;3.97;;;7.90;99.90;;;;;;5075147;28;20056;-67
2022/10/11 07:59:03;;;;;;;10.88;4.05;;;8.10;99.90;;;;;;5040085;28;20057;-68
2022/10/11 08:01:29;;;;;;;10.60;4.75;;;8.10;99.90;;;;;;5069350;28;20052;-69
2022/10/11 08:03:56;;;;;;;10.65;3.58;;;8.30;99.90;;;;;;5061767;28;20450;-70
2022/10/11 08:06:26;;;;;;;12.07;3.53;;;8.30;99.90;;;;;;5070927;28;20062;-72
2022/10/11 08:08:52;;;;;;;10.10;3.40;;;8.40;99.90;;;;;;5049276;28;20052;-71
2022/10/11 08:11:25;;;;;;;10.23;3.45;;;8.50;99.90;;;;;;5076576;28;20515;-71
2022/10/11 08:13:51;;;;;;;10.88;3.22;;;8.50;99.90;;;;;;5069447;28;20059;-72
2022/10/11 08:16:18;;;;;;;9.77;3.35;;;8.60;99.90;;;;;;5046831;28;20048;-71
2022/10/11 08:18:43;;;;;;;10.10;3.42;;;8.70;99.90;;;;;;5053956;28;20143;-71
2022/10/11 08:21:12;;;;;;;15.88;4.30;;;8.80;99.90;;;;;;5072200;28;20071;-72
2022/10/11 08:23:37;;;;;;;12.75;3.67;;;8.90;99.90;;;;;;5048189;28;20079;-70
2022/10/11 08:26:04;;;;;;;10.73;3.72;;;9.00;99.90;;;;;;5061110;28;20045;-70
2022/10/11 08:28:30;;;;;;;16.73;4.97;;;9.10;99.90;;;;;;5042706;28;20056;-70
2022/10/11 08:30:55;;;;;;;14.00;3.80;;;9.20;99.90;;;;;;5071367;28;20048;-71
2022/10/11 08:33:23;;;;;;;9.43;3.05;;;9.30;99.90;;;;;;5059700;28;20048;-71
2022/10/11 08:35:50;;;;;;;12.90;4.25;;;9.40;99.90;;;;;;5068855;28;20057;-72
2022/10/11 08:38:17;;;;;;;12.13;3.80;;;9.50;99.90;;;;;;5063421;28;20044;-72
2022/10/11 08:40:53;;;;;;;10.80;3.05;;;9.60;99.90;;;;;;5071888;28;20104;-72
2022/10/11 08:43:47;;;;;;;19.70;3.75;;;9.70;99.90;;;;;;5066234;28;20044;-72
2022/10/11 08:46:14;;;;;;;11.32;3.97;;;9.80;99.90;;;;;;5067460;28;20048;-72
2022/10/11 08:48:41;;;;;;;9.18;2.92;;;9.90;99.90;;;;;;5063037;28;20064;-72
2022/10/11 08:51:26;;;;;;;7.07;3.22;;;10.00;99.90;;;;;;5071980;28;20104;-71
2022/10/11 08:54:00;;;;;;;10.90;3.83;;;10.10;99.90;;;;;;5049494;28;20055;-72
2022/10/11 08:56:27;;;;;;;10.40;3.83;;;10.20;99.90;;;;;;5073424;28;20055;-72
2022/10/11 08:58:59;;;;;;;10.55;3.08;;;10.30;99.90;;;;;;5049097;28;20045;-72
2022/10/11 09:01:27;;;;;;;8.82;3.00;;;10.40;99.90;;;;;;5077899;28;20052;-71
2022/10/11 09:03:53;;;;;;;10.23;2.72;;;10.50;99.90;;;;;;5062219;28;20114;-71
2022/10/11 09:06:39;;;;;;;9.43;3.35;;;10.60;99.90;;;;;;5070957;28;20056;-71
2022/10/11 09:09:22;;;;;;;10.93;2.50;;;10.80;99.90;;;;;;5041314;28;20053;-71
2022/10/11 09:12:09;;;;;;;13.88;3.85;;;10.80;99.90;;;;;;5072870;28;20071;-71
2022/10/11 09:14:53;;;;;;;10.13;2.55;;;11.00;99.90;;;;;;5031718;28;20064;-71
2022/10/11 09:17:27;;;;;;;12.40;2.65;;;11.10;99.90;;;;;;5056881;28;20041;-70
2022/10/11 09:20:19;;;;;;;10.40;2.78;;;11.10;99.90;;;;;;5060081;28;20053;-73
2022/10/11 09:23:10;;;;;;;9.57;2.63;;;11.20;99.90;;;;;;5065730;28;20049;-73
2022/10/11 09:26:11;;;;;;;8.48;2.38;;;11.30;99.90;;;;;;5065378;28;20048;-73
2022/10/11 09:28:46;;;;;;;13.07;3.13;;;11.40;99.90;;;;;;5084993;28;20055;-73
2022/10/11 09:31:12;;;;;;;12.77;3.38;;;11.50;99.90;;;;;;5071164;28;20045;-73
2022/10/11 09:33:45;;;;;;;16.38;5.05;;;11.60;99.90;;;;;;5050165;28;20094;-72
2022/10/11 09:36:16;;;;;;;6.47;2.30;;;11.70;99.90;;;;;;5065844;28;20061;-72
2022/10/11 09:38:57;;;;;;;11.15;2.83;;;11.80;99.90;;;;;;5053923;28;20048;-72
2022/10/11 09:41:32;;;;;;;13.75;3.58;;;11.80;99.90;;;;;;5072875;28;20625;-72
2022/10/11 09:43:57;;;;;;;9.77;3.15;;;11.80;99.90;;;;;;5053820;28;20055;-72
2022/10/11 09:46:38;;;;;;;10.80;2.63;;;11.90;99.90;;;;;;5066150;28;20123;-72
2022/10/11 09:49:08;;;;;;;12.32;2.88;;;11.90;99.90;;;;;;5050671;28;20064;-72
2022/10/11 09:51:35;;;;;;;11.15;2.53;;;12.00;99.90;;;;;;5055406;28;20053;-72
2022/10/11 09:54:05;;;;;;;12.32;2.60;;;12.10;99.90;;;;;;5062273;28;20041;-72
2022/10/11 09:56:32;;;;;;;;;;;12.20;99.90;;;;;;5072719;28;20048;-72
2022/10/11 09:59:24;;;;;;;11.05;2.30;;;12.30;99.90;;;;;;5053923;28;19921;-72
2022/10/11 10:02:25;;;;;;;10.02;2.42;;;12.40;99.90;;;;;;5071433;28;20135;-73
2022/10/11 10:04:59;;;;;;;13.73;3.03;;;12.50;99.90;;;;;;5053619;28;20061;-72
2022/10/11 10:07:26;;;;;;;11.45;2.65;;;12.50;99.90;;;;;;5053021;28;20112;-73
2022/10/11 10:09:52;;;;;;;8.48;2.58;;;12.60;99.90;;;;;;5071198;28;20147;-72
2022/10/11 10:12:26;;;;;;;9.45;2.00;;;12.60;99.90;;;;;;5078453;28;20055;-72
2022/10/11 10:15:18;;;;;;;13.93;2.78;;;12.80;99.90;;;;;;5051628;28;20558;-72
2022/10/11 10:17:51;;;;;;;11.02;2.58;;;12.80;99.90;;;;;;5066862;28;20056;-69
2022/10/11 10:20:24;;;;;;;12.35;2.95;;;13.00;99.90;;;;;;5075711;28;20108;-69
2022/10/11 10:22:50;;;;;;;12.63;2.85;;;13.00;99.90;;;;;;5067191;28;20060;-69
2022/10/11 10:25:33;;;;;;;11.98;2.85;;;13.20;99.90;;;;;;5058898;28;20041;-72
2022/10/11 10:28:02;;;;;;;9.02;2.55;;;13.30;99.90;;;;;;5069084;28;20098;-71
2022/10/11 10:30:28;;;;;;;14.57;2.50;;;13.30;99.90;;;;;;5063270;28;20135;-70
2022/10/11 10:33:07;;;;;;;10.18;2.38;;;13.40;99.90;;;;;;5067111;28;20061;-69
2022/10/11 10:35:40;;;;;;;10.10;2.10;;;13.50;99.90;;;;;;5065831;28;20091;-70
2022/10/11 10:38:05;;;;;;;9.27;2.33;;;13.50;99.90;;;;;;5061573;28;20045;-69
2022/10/11 10:40:52;;;;;;;9.25;2.75;;;13.60;99.90;;;;;;5055932;28;20199;-70
2022/10/11 10:43:21;;;;;;;9.50;2.00;;;13.60;99.90;;;;;;5045455;28;20135;-70
2022/10/11 10:46:04;;;;;;;14.02;3.03;;;13.60;99.90;;;;;;5068502;28;20083;-69
2022/10/11 10:48:57;;;;;;;8.18;2.20;;;13.60;99.90;;;;;;5070794;28;20082;-69
2022/10/11 10:51:51;;;;;;;10.68;2.38;;;13.70;99.90;;;;;;5072153;28;20044;-71
2022/10/11 10:54:29;;;;;;;9.57;2.63;;;13.60;99.90;;;;;;5056102;28;20051;-70
2022/10/11 10:56:58;;;;;;;7.75;2.10;;;13.70;99.90;;;;;;5076558;28;20057;-69
2022/10/11 10:59:53;;;;;;;14.73;3.10;;;13.70;99.90;;;;;;5049560;28;20055;-68
2022/10/11 11:02:44;;;;;;;11.38;2.72;;;13.80;99.90;;;;;;5078478;28;20032;-70
2022/10/11 11:05:39;;;;;;;12.07;3.13;;;13.90;99.90;;;;;;5056605;28;20095;-70
2022/10/11 11:08:23;;;;;;;10.27;2.60;;;14.00;99.90;;;;;;5064243;28;20067;-70
2022/10/11 11:11:00;;;;;;;12.18;2.55;;;14.10;99.90;;;;;;5064350;28;20040;-71
2022/10/11 11:13:52;;;;;;;11.63;2.70;;;14.10;99.90;;;;;;5041826;28;20048;-68
2022/10/11 11:16:24;;;;;;;13.40;2.30;;;14.20;99.90;;;;;;5051993;28;21142;-66
2022/10/11 11:19:14;;;;;;;9.88;2.30;;;14.20;99.90;;;;;;5059104;28;20115;-69
2022/10/11 11:21:55;;;;;;;10.25;2.42;;;14.30;99.90;;;;;;5072762;28;20102;-68
2022/10/11 11:24:32;;;;;;;11.77;2.55;;;14.40;99.90;;;;;;5039483;28;20067;-68
2022/10/11 11:27:32;;;;;;;11.82;2.08;;;14.50;99.90;;;;;;5075733;28;20232;-69
2022/10/11 11:30:08;;;;;;;8.98;1.80;;;14.50;99.90;;;;;;5064632;28;20559;-70
2022/10/11 11:32:40;;;;;;;12.48;2.55;;;14.60;99.90;;;;;;5070061;28;20048;-68
2022/10/11 11:35:32;;;;;;;14.75;3.15;;;14.70;99.90;;;;;;5048544;28;20040;-70
2022/10/11 11:38:05;;;;;;;11.32;2.00;;;14.80;99.90;;;;;;5058713;28;20080;-70
2022/10/11 11:40:38;;;;;;;8.50;2.35;;;14.80;99.90;;;;;;5062748;28;20044;-71
2022/10/11 11:43:14;;;;;;;8.73;1.70;;;14.90;99.90;;;;;;5063574;28;20055;-70
2022/10/11 11:45:43;;;;;;;8.43;2.20;;;15.00;99.90;;;;;;5062726;28;20060;-70
2022/10/11 11:48:25;;;;;;;7.82;1.75;;;15.10;99.90;;;;;;5066151;28;20052;-70
2022/10/11 11:51:17;;;;;;;8.10;1.92;;;15.20;99.90;;;;;;5028486;28;20052;-70
2022/10/11 11:53:54;;;;;;;8.15;1.85;;;15.30;99.90;;;;;;5052890;28;20072;-70
2022/10/11 11:56:29;;;;;;;9.25;2.03;;;15.20;99.90;;;;;;5076523;28;20041;-70
2022/10/11 11:59:08;;;;;;;10.65;2.60;;;15.00;99.90;;;;;;5055855;28;20049;-70
2022/10/11 12:01:58;;;;;;;13.03;2.40;;;14.90;99.90;;;;;;5067475;28;20044;-67
2022/10/11 12:04:30;;;;;;;8.65;1.83;;;15.10;99.90;;;;;;5053160;28;20302;-70
2022/10/11 12:07:11;;;;;;;8.10;2.50;;;15.30;99.90;;;;;;5063993;28;20099;-68
2022/10/11 12:09:39;;;;;;;9.50;2.00;;;15.70;99.90;;;;;;5058250;28;20068;-69
2022/10/11 12:12:11;;;;;;;9.93;2.17;;;15.70;99.90;;;;;;5072005;28;20094;-69
2022/10/11 12:14:39;;;;;;;10.40;2.72;;;15.90;99.90;;;;;;5055007;28;20514;-68
2022/10/11 12:17:15;;;;;;;9.38;2.20;;;16.00;99.90;;;;;;5053825;28;20044;-68
2022/10/11 12:19:57;;;;;;;7.97;2.35;;;16.10;99.90;;;;;;5084956;28;20047;-68
2022/10/11 12:22:26;;;;;;;9.23;2.08;;;16.20;99.90;;;;;;5065625;28;20047;-69
2022/10/11 12:24:57;;;;;;;9.77;3.08;;;16.40;99.90;;;;;;5039331;28;20139;-68
2022/10/11 12:27:35;;;;;;;9.82;2.33;;;16.60;99.90;;;;;;5064989;28;20055;-69
2022/10/11 12:30:00;;;;;;;10.77;2.85;;;16.90;99.90;;;;;;5064146;28;20041;-69
2022/10/11 12:32:26;;;;;;;7.63;2.15;;;16.80;99.90;;;;;;5075886;28;20075;-69
2022/10/11 12:35:31;;;;;;;12.85;2.30;;;16.50;99.90;;;;;;5047301;28;20045;-69
2022/10/11 12:38:28;;;;;;;10.60;2.28;;;16.80;99.90;;;;;;5067792;28;20073;-70
2022/10/11 12:41:01;;;;;;;9.20;2.25;;;17.80;99.90;;;;;;5065666;28;20055;-66
2022/10/11 12:43:30;;;;;;;8.32;1.95;;;18.30;99.90;;;;;;5061067;28;20059;-65
2022/10/11 12:46:05;;;;;;;9.35;2.55;;;18.80;99.90;;;;;;5051441;28;20074;-65
2022/10/11 12:48:56;;;;;;;9.32;2.00;;;19.20;99.90;;;;;;5065974;28;20040;-68
2022/10/11 12:51:49;;;;;;;9.73;2.47;;;19.40;99.90;;;;;;5064060;28;20139;-67
2022/10/11 12:54:43;;;;;;;7.82;1.90;;;19.70;99.90;;;;;;5063909;28;20048;-68
2022/10/11 12:57:46;;;;;;;7.82;2.05;;;19.10;99.90;;;;;;5068990;28;20060;-68
2022/10/11 13:00:17;;;;;;;6.70;2.03;;;18.80;99.90;;;;;;5066192;28;20063;-68
2022/10/11 13:02:43;;;;;;;7.00;1.80;;;18.90;99.90;;;;;;5075642;28;20555;-68
2022/10/11 13:05:24;;;;;;;5.05;2.00;;;19.10;99.90;;;;;;5059738;28;20048;-68
2022/10/11 13:07:55;;;;;;;7.55;2.75;;;18.80;99.90;;;;;;5075767;28;20048;-68
2022/10/11 13:10:31;;;;;;;8.70;2.28;;;19.00;99.90;;;;;;5044820;28;20464;-67
2022/10/11 13:13:03;;;;;;;9.40;2.20;;;18.90;99.90;;;;;;5076186;28;20048;-67